Thunder radar more information blitzortung!


Radar de pluja more information rain snow radar


Visita la nostra xarxa de llocs de meteo:

Template documentation
and downloads

And another site



No particular awareness of the weather is required.    There are no Weather-warnings

Pagina Historial Weather Underground text

Diari Resum Novembre 14, 2017 Unitats:  Imperial    Mètric   Tant
« Previous Dia
SegĂźent Dia »
Diari Setmana Mensual Anual Personalitzada
  Maxima: Minima: Media:
Temperatura: TemperatureC °F 2.2 °F 8.7 °F
Punt de rosada: DewpointC °F -10.9 °F -5.4 °F
Humitat: Humidity % 25 % 37 %
Wind Speed: WindSpeedKMH mph 0.0 mph 3.4 mph
RĂ fegues de vent: WindSpeedGustKMH mph - -
Vent:- - SSW
Pression baro: PressurehPa in 1014.8 in -
Precipitacions: 0.0 in    
Historical Graphs
 
 
Dades de taula per Novembre 14, 2017
Temps Temperatura Punt de rosada Pression baro Vent Wind Speed RĂ fegues de vent Humitat Rainfall Rate (Hourly)
TemperatureC °F DewpointC °F PressurehPa in Calm     Humidity % HourlyPrecipMM in
00:00 8.1 °F -10.8 °F 1015.8 in WSW 4.8 mph 9.7 mph 25 % 0.0 in
00:05 8.0 °F -10.9 °F 1014.8 in WSW 8.0 mph 16.1 mph 25 % 0.0 in
00:10 8.0 °F -10.8 °F 1014.8 in West 4.8 mph 12.9 mph 25 % 0.0 in
00:20 4.7 °F -10.6 °F 1015.8 in WSW 1.6 mph 4.8 mph 32 % 0.0 in
00:30 4.5 °F -10.4 °F 1015.8 in West 1.6 mph 4.8 mph 33 % 0.0 in
00:40 4.3 °F -10.6 °F 1015.8 in West 1.6 mph 3.2 mph 33 % 0.0 in
00:50 4.1 °F -10.8 °F 1015.8 in NW 1.6 mph 1.6 mph 33 % 0.0 in
01:00 3.9 °F -10.9 °F 1016.8 in Calm   1.6 mph 33 % 0.0 in
01:10 3.8 °F -10.7 °F 1016.8 in NNW 1.6 mph 1.6 mph 34 % 0.0 in
01:20 3.7 °F -10.7 °F 1016.8 in Calm   1.6 mph 34 % 0.0 in
01:30 3.5 °F -10.9 °F 1017.8 in Calm   1.6 mph 34 % 0.0 in
01:40 3.4 °F -10.7 °F 1017.8 in Calm   1.6 mph 35 % 0.0 in
01:50 3.2 °F -10.8 °F 1017.8 in West 1.6 mph 3.2 mph 35 % 0.0 in
02:00 3.5 °F -10.2 °F 1017.8 in West 1.6 mph 1.6 mph 36 % 0.0 in
02:10 3.9 °F -9.8 °F 1017.8 in North 1.6 mph 3.2 mph 36 % 0.0 in
02:20 4.2 °F -9.2 °F 1017.8 in WNW 1.6 mph 1.6 mph 37 % 0.0 in
02:30 4.8 °F -8.7 °F 1017.8 in West 1.6 mph 3.2 mph 37 % 0.0 in
02:40 5.1 °F -8.4 °F 1017.8 in WNW 1.6 mph 3.2 mph 37 % 0.0 in
03:00 6.1 °F -7.2 °F 1017.8 in NW 1.6 mph 4.8 mph 38 % 0.0 in
03:10 6.5 °F -6.8 °F 1018.8 in NW 3.2 mph 4.8 mph 38 % 0.0 in
03:20 6.7 °F -6.7 °F 1018.8 in NE 3.2 mph 3.2 mph 38 % 0.0 in
03:30 6.9 °F -6.4 °F 1018.8 in NE 3.2 mph 8.0 mph 38 % 0.0 in
09:37 7.3 °F -6.1 °F 1018.8 in ESE 3.7 mph 3.7 mph 38 % 0.0 in
09:38 7.4 °F -6.0 °F 1018.8 in East 1.9 mph   38 % 0.0 in
09:43 7.4 °F -6.0 °F 1018.8 in ENE 5.6 mph 5.6 mph 38 % 0.0 in
09:48 7.7 °F -5.7 °F 1018.8 in West 3.7 mph 3.7 mph 38 % 0.0 in
09:53 7.8 °F -5.7 °F 1019.9 in NNE 7.4 mph 7.4 mph 38 % 0.0 in
09:58 7.4 °F -6.4 °F 1019.9 in ENE 7.4 mph 7.4 mph 37 % 0.0 in
10:03 7.9 °F -5.6 °F 1019.9 in NNE 6.1 mph 6.1 mph 38 % 0.0 in
10:08 8.2 °F -5.3 °F 1018.8 in ENE 3.7 mph 3.7 mph 38 % 0.0 in
10:13 8.2 °F -5.7 °F 1018.8 in NNE 5.6 mph 5.6 mph 37 % 0.0 in
10:18 8.3 °F -5.6 °F 1018.8 in WNW 5.6 mph 5.6 mph 37 % 0.0 in
10:23 8.6 °F -4.9 °F 1018.8 in North 7.4 mph 7.4 mph 38 % 0.0 in
10:28 8.7 °F -5.2 °F 1018.8 in NW 3.7 mph 3.7 mph 37 % 0.0 in
10:33 8.7 °F -5.2 °F 1018.8 in NNE 9.3 mph 9.3 mph 37 % 0.0 in
10:38 8.5 °F -5.4 °F 1018.8 in NNE 5.6 mph 5.6 mph 37 % 0.0 in
10:43 9.1 °F -4.8 °F 1018.8 in SSE 3.7 mph   37 % 0.0 in
10:48 9.2 °F -4.8 °F 1018.8 in NE 10.0 mph 10.0 mph 37 % 0.0 in
10:53 9.0 °F -4.9 °F 1019.9 in NNE 9.3 mph 9.3 mph 37 % 0.0 in
10:58 9.3 °F -4.7 °F 1019.9 in NNE 6.4 mph 6.4 mph 37 % 0.0 in
11:03 9.3 °F -4.7 °F 1019.9 in North 7.4 mph 7.4 mph 37 % 0.0 in
11:08 9.5 °F -4.5 °F 1019.9 in NE 7.4 mph 7.4 mph 37 % 0.0 in
11:13 10.0 °F -4.1 °F 1019.9 in ESE 3.7 mph 3.7 mph 37 % 0.0 in
11:18 10.3 °F -3.8 °F 1019.9 in ENE 5.6 mph 5.6 mph 37 % 0.0 in
11:23 9.9 °F -4.5 °F 1019.9 in NE 9.3 mph 9.3 mph 36 % 0.0 in
11:28 9.9 °F -4.5 °F 1019.9 in NNE 5.6 mph 5.6 mph 36 % 0.0 in
11:33 10.4 °F -3.7 °F 1019.9 in WNW 3.7 mph 3.7 mph 37 % 0.0 in
11:38 10.7 °F -3.8 °F 1019.9 in East 3.7 mph 3.7 mph 36 % 0.0 in
11:43 10.9 °F -3.6 °F 1019.9 in NE 3.9 mph 3.9 mph 36 % 0.0 in
11:53 11.0 °F -3.5 °F 1018.8 in SW 3.7 mph 3.7 mph 36 % 0.0 in
11:58 11.3 °F -3.3 °F 1018.8 in ENE 3.7 mph 3.7 mph 36 % 0.0 in
12:03 11.6 °F -3.0 °F 1018.8 in North 5.6 mph 5.6 mph 36 % 0.0 in
12:08 11.4 °F -3.2 °F 1018.8 in East 7.9 mph 7.9 mph 36 % 0.0 in
12:13 11.4 °F -3.2 °F 1018.8 in NE 7.4 mph 7.4 mph 36 % 0.0 in
12:23 11.7 °F -3.3 °F 1018.8 in East 3.7 mph 3.7 mph 35 % 0.0 in
12:28 12.0 °F -3.0 °F 1018.8 in SSW 3.7 mph 3.7 mph 35 % 0.0 in
12:33 12.1 °F -2.6 °F 1018.8 in NE 5.6 mph 5.6 mph 36 % 0.0 in
12:43 12.2 °F -2.8 °F 1017.8 in NE 5.6 mph 5.6 mph 35 % 0.0 in
12:48 12.6 °F -2.5 °F 1017.8 in ENE 4.7 mph 4.7 mph 35 % 0.0 in
12:53 12.2 °F -2.8 °F 1017.8 in ENE 6.9 mph 6.9 mph 35 % 0.0 in
12:58 12.3 °F -2.7 °F 1017.8 in East 5.6 mph 5.6 mph 35 % 0.0 in
13:03 12.6 °F -2.5 °F 1017.8 in ESE 3.7 mph 3.7 mph 35 % 0.0 in
13:08 12.8 °F -2.3 °F 1017.8 in ENE 3.9 mph 3.9 mph 35 % 0.0 in
13:13 13.3 °F -1.8 °F 1017.8 in SE 3.9 mph 3.9 mph 35 % 0.0 in
13:18 13.4 °F -1.4 °F 1017.8 in West 5.6 mph 5.6 mph 36 % 0.0 in
13:23 13.7 °F -1.5 °F 1017.8 in SW 7.4 mph 7.4 mph 35 % 0.0 in
13:28 13.6 °F -2.0 °F 1017.8 in East 5.6 mph 5.6 mph 34 % 0.0 in
13:33 13.7 °F -1.5 °F 1017.8 in NW 4.7 mph 4.7 mph 35 % 0.0 in
13:38 13.6 °F -2.0 °F 1018.8 in NW 3.7 mph 3.7 mph 34 % 0.0 in
13:43 13.5 °F -2.1 °F 1018.8 in NW 4.2 mph 4.2 mph 34 % 0.0 in
13:48 13.6 °F -2.0 °F 1018.8 in SSE 3.7 mph 3.7 mph 34 % 0.0 in
13:53 13.6 °F -2.0 °F 1017.8 in WSW 5.6 mph 5.6 mph 34 % 0.0 in
13:58 13.6 °F -2.0 °F 1017.8 in SW 3.7 mph 3.7 mph 34 % 0.0 in
14:03 13.5 °F -2.1 °F 1017.8 in NNE 3.7 mph 3.7 mph 34 % 0.0 in
14:13 13.5 °F -2.5 °F 1017.8 in ESE 7.4 mph 7.4 mph 33 % 0.0 in
14:18 13.5 °F -2.5 °F 1017.8 in ESE 9.3 mph 9.3 mph 33 % 0.0 in
14:23 13.7 °F -2.3 °F 1017.8 in SSW 5.6 mph 5.6 mph 33 % 0.0 in
14:28 13.8 °F -2.2 °F 1017.8 in West 3.9 mph 3.9 mph 33 % 0.0 in
14:33 14.2 °F -1.9 °F 1017.8 in SW 7.4 mph 7.4 mph 33 % 0.0 in
14:38 14.0 °F -2.1 °F 1017.8 in NE 9.3 mph 9.5 mph 33 % 0.0 in
14:43 14.0 °F -2.1 °F 1017.8 in ESE 7.4 mph 7.4 mph 33 % 0.0 in
14:45 14.3 °F -1.4 °F 1017.8 in NW 5.6 mph 5.6 mph 34 % 0.0 in
14:50 14.6 °F -1.1 °F 1017.8 in WNW 11.1 mph 11.1 mph 34 % 0.0 in
14:55 14.5 °F -1.6 °F 1017.8 in WSW 5.6 mph 5.6 mph 33 % 0.0 in
15:00 14.6 °F -1.5 °F 1017.8 in SW 3.7 mph 3.7 mph 33 % 0.0 in
15:05 14.8 °F -1.3 °F 1017.8 in WNW 5.6 mph 5.6 mph 33 % 0.0 in
15:10 14.9 °F -1.3 °F 1017.8 in SW 7.4 mph 7.4 mph 33 % 0.0 in
15:15 15.0 °F -1.2 °F 1017.8 in SW 5.6 mph 5.6 mph 33 % 0.0 in
15:20 15.4 °F -0.8 °F 1017.8 in SSE 5.6 mph 5.6 mph 33 % 0.0 in
15:25 15.3 °F -0.9 °F 1017.8 in SW 3.7 mph 3.7 mph 33 % 0.0 in
15:30 15.5 °F -0.7 °F 1017.8 in WSW 5.6 mph 5.6 mph 33 % 0.0 in
15:35 15.6 °F -0.6 °F 1017.8 in West 5.6 mph 5.6 mph 33 % 0.0 in
15:40 15.7 °F -0.6 °F 1017.8 in SSE 5.6 mph 5.6 mph 33 % 0.0 in
15:45 15.6 °F -0.6 °F 1017.8 in WSW 5.6 mph 5.6 mph 33 % 0.0 in
15:50 15.4 °F -1.2 °F 1017.8 in SW 5.6 mph 5.6 mph 32 % 0.0 in
15:55 15.4 °F -1.2 °F 1017.8 in WSW 3.7 mph 3.7 mph 32 % 0.0 in
16:00 15.2 °F -1.4 °F 1017.8 in NW 7.4 mph 7.4 mph 32 % 0.0 in
16:05 15.2 °F -1.4 °F 1017.8 in SW 7.4 mph 7.4 mph 32 % 0.0 in
16:15 15.4 °F -1.2 °F 1017.8 in NW 3.7 mph 3.7 mph 32 % 0.0 in
16:20 15.3 °F -1.3 °F 1017.8 in WSW 3.7 mph 3.7 mph 32 % 0.0 in
16:25 15.2 °F -1.4 °F 1017.8 in NNE 5.6 mph 5.6 mph 32 % 0.0 in
16:30 14.9 °F -1.7 °F 1017.8 in SSW 3.7 mph 3.7 mph 32 % 0.0 in
16:35 14.8 °F -1.8 °F 1017.8 in West 3.7 mph 3.7 mph 32 % 0.0 in
16:40 14.6 °F -1.9 °F 1017.8 in WSW 5.0 mph 5.0 mph 32 % 0.0 in
16:45 14.4 °F -2.1 °F 1017.8 in WSW 3.7 mph 3.7 mph 32 % 0.0 in
16:50 14.2 °F -2.3 °F 1017.8 in WNW 3.7 mph 3.7 mph 32 % 0.0 in
16:55 13.9 °F -2.6 °F 1017.8 in SW 3.7 mph   32 % 0.0 in
17:00 13.8 °F -2.6 °F 1017.8 in NNW 2.3 mph 2.3 mph 32 % 0.0 in
17:01 13.7 °F -2.7 °F 1017.8 in NNW 3.7 mph 3.7 mph 32 % 0.0 in
17:06 13.6 °F -2.8 °F 1018.8 in West 7.4 mph 7.4 mph 32 % 0.0 in
17:11 13.2 °F -3.2 °F 1018.8 in West 5.6 mph 5.6 mph 32 % 0.0 in
17:16 12.9 °F -3.4 °F 1018.8 in WNW 3.7 mph 3.7 mph 32 % 0.0 in
17:21 12.6 °F -3.7 °F 1018.8 in West 5.6 mph 5.6 mph 32 % 0.0 in
17:26 12.3 °F -3.9 °F 1018.8 in West 1.9 mph 1.9 mph 32 % 0.0 in
17:31 12.0 °F -4.2 °F 1018.8 in WSW 3.9 mph 3.9 mph 32 % 0.0 in
17:36 11.8 °F -4.4 °F 1018.8 in NW 3.7 mph 3.7 mph 32 % 0.0 in
17:41 11.6 °F -4.6 °F 1018.8 in WNW 3.7 mph 3.7 mph 32 % 0.0 in
17:46 11.5 °F -4.7 °F 1018.8 in WNW 3.7 mph 3.7 mph 32 % 0.0 in
17:51 11.3 °F -4.8 °F 1018.8 in WNW 1.9 mph 1.9 mph 32 % 0.0 in
17:56 11.1 °F -5.0 °F 1018.8 in NNW 3.9 mph 3.9 mph 32 % 0.0 in
18:01 11.0 °F -5.1 °F 1018.8 in West 3.7 mph 3.7 mph 32 % 0.0 in
18:06 10.7 °F -5.3 °F 1018.8 in NE 3.7 mph 3.7 mph 32 % 0.0 in
18:11 10.5 °F -5.5 °F 1018.8 in NE 3.7 mph 3.7 mph 32 % 0.0 in
18:16 10.3 °F -5.7 °F 1018.8 in NNE 3.7 mph 3.7 mph 32 % 0.0 in
18:21 10.1 °F -5.9 °F 1018.8 in NNW 3.7 mph 3.7 mph 32 % 0.0 in
18:26 9.9 °F -6.1 °F 1018.8 in West 1.9 mph 1.9 mph 32 % 0.0 in
18:31 9.8 °F -5.7 °F 1018.8 in WSW 3.7 mph 3.7 mph 33 % 0.0 in
18:36 9.7 °F -5.8 °F 1019.9 in SSW 3.9 mph   33 % 0.0 in
18:41 9.8 °F -5.7 °F 1019.9 in WNW 1.9 mph   33 % 0.0 in
18:46 9.7 °F -5.8 °F 1019.9 in WNW 1.9 mph   33 % 0.0 in
18:51 9.5 °F -6.0 °F 1019.9 in WSW 3.7 mph 3.7 mph 33 % 0.0 in
18:56 9.5 °F -6.0 °F 1019.9 in SSW 1.9 mph   33 % 0.0 in
19:01 9.6 °F -5.9 °F 1019.9 in SW 5.6 mph 5.6 mph 33 % 0.0 in
19:05 3.9 °F -6.4 °F 1019.9 in Calm     47 % 0.0 in
19:06 9.5 °F -6.0 °F 1019.9 in SW 4.2 mph 4.2 mph 33 % 0.0 in
19:11 9.4 °F -6.1 °F 1019.9 in West 3.9 mph 3.9 mph 33 % 0.0 in
19:15 3.8 °F -6.5 °F 1019.9 in Calm     47 % 0.0 in
19:16 9.2 °F -6.3 °F 1019.9 in West 3.2 mph 3.2 mph 33 % 0.0 in
19:17 9.1 °F -6.3 °F 1019.9 in West 3.7 mph 3.7 mph 33 % 0.0 in
19:22 9.0 °F -6.4 °F 1019.9 in WNW 2.6 mph 2.6 mph 33 % 0.0 in
19:25 3.6 °F -6.4 °F 1019.9 in WNW 1.6 mph 1.6 mph 48 % 0.0 in
19:27 9.1 °F -6.3 °F 1019.9 in WNW 2.3 mph 2.3 mph 33 % 0.0 in
19:32 9.0 °F -6.4 °F 1019.9 in WNW 1.9 mph 1.9 mph 33 % 0.0 in
19:35 3.4 °F -6.6 °F 1019.9 in Calm   1.6 mph 48 % 0.0 in
19:37 9.0 °F -6.4 °F 1019.9 in WNW 1.9 mph   33 % 0.0 in
19:42 9.0 °F -6.4 °F 1019.9 in Calm     33 % 0.0 in
19:45 3.6 °F -6.4 °F 1019.9 in West 1.6 mph 3.2 mph 48 % 0.0 in
19:47 8.8 °F -6.6 °F 1019.9 in NNW 2.3 mph 2.3 mph 33 % 0.0 in
19:52 8.7 °F -6.7 °F 1019.9 in WNW 1.9 mph 1.9 mph 33 % 0.0 in
19:55 3.6 °F -6.4 °F 1019.9 in Calm   1.6 mph 48 % 0.0 in
19:57 8.8 °F -6.6 °F 1019.9 in Calm     33 % 0.0 in
20:02 8.9 °F -6.6 °F 1019.9 in WNW 1.9 mph   33 % 0.0 in
20:05 3.6 °F -6.1 °F 1019.9 in NE 1.6 mph 3.2 mph 49 % 0.0 in
20:07 8.9 °F -6.6 °F 1019.9 in Calm     33 % 0.0 in
20:12 8.8 °F -6.2 °F 1019.9 in WNW 1.9 mph 1.9 mph 34 % 0.0 in
20:15 3.7 °F -6.1 °F 1019.9 in NE 1.6 mph 3.2 mph 49 % 0.0 in
20:17 8.5 °F -6.5 °F 1019.9 in Calm     34 % 0.0 in
20:22 8.2 °F -6.8 °F 1019.9 in West 3.7 mph 3.7 mph 34 % 0.0 in
20:25 3.5 °F -6.5 °F 1019.9 in Calm   1.6 mph 48 % 0.0 in
20:27 8.2 °F -6.8 °F 1019.9 in West 3.2 mph   34 % 0.0 in
20:32 8.0 °F -6.9 °F 1019.9 in Calm     34 % 0.0 in
20:35 3.4 °F -6.6 °F 1019.9 in Calm   1.6 mph 48 % 0.0 in
20:37 7.8 °F -7.1 °F 1019.9 in Calm     34 % 0.0 in
20:42 7.6 °F -7.3 °F 1019.9 in Calm     34 % 0.0 in
20:45 3.4 °F -6.6 °F 1019.9 in WNW 1.6 mph 3.2 mph 48 % 0.0 in
20:47 7.6 °F -7.3 °F 1019.9 in WSW 3.7 mph 3.7 mph 34 % 0.0 in
20:52 7.6 °F -7.3 °F 1019.9 in Calm     34 % 0.0 in
20:55 3.2 °F -6.8 °F 1019.9 in WNW 1.6 mph 3.2 mph 48 % 0.0 in
20:57 7.5 °F -7.4 °F 1019.9 in NW 1.9 mph 1.9 mph 34 % 0.0 in
21:02 7.3 °F -7.2 °F 1019.9 in North 3.7 mph 3.7 mph 35 % 0.0 in
21:05 3.1 °F -6.9 °F 1019.9 in WNW 1.6 mph 3.2 mph 48 % 0.0 in
21:07 7.2 °F -7.3 °F 1019.9 in NNW 2.3 mph 2.3 mph 35 % 0.0 in
21:12 7.1 °F -7.3 °F 1019.9 in North 3.7 mph 3.7 mph 35 % 0.0 in
21:15 2.8 °F -7.2 °F 1019.9 in West 1.6 mph 3.2 mph 48 % 0.0 in
21:17 7.0 °F -7.4 °F 1019.9 in ENE 3.7 mph 3.7 mph 35 % 0.0 in
21:22 7.0 °F -7.4 °F 1019.9 in Calm     35 % 0.0 in
21:25 2.8 °F -6.9 °F 1019.9 in West 1.6 mph 4.8 mph 49 % 0.0 in
21:27 6.9 °F -7.2 °F 1019.9 in ENE 2.3 mph   36 % 0.0 in
21:32 6.9 °F -7.2 °F 1019.9 in ENE 1.9 mph 1.9 mph 36 % 0.0 in
21:35 2.9 °F -6.8 °F 1019.9 in West 1.6 mph 3.2 mph 49 % 0.0 in
21:37 6.7 °F -7.3 °F 1019.9 in East 3.7 mph 3.7 mph 36 % 0.0 in
21:42 6.7 °F -7.0 °F 1019.9 in East 1.9 mph   37 % 0.0 in
21:45 3.2 °F -6.5 °F 1019.9 in West 1.6 mph 4.8 mph 49 % 0.0 in
21:47 6.6 °F -7.1 °F 1019.9 in NE 2.3 mph 2.3 mph 37 % 0.0 in
21:52 6.4 °F -7.3 °F 1019.9 in NE 3.7 mph 3.7 mph 37 % 0.0 in
21:55 3.2 °F -6.5 °F 1019.9 in Calm   4.8 mph 49 % 0.0 in
21:57 6.2 °F -7.4 °F 1019.9 in Calm     37 % 0.0 in
22:02 6.1 °F -7.5 °F 1019.9 in Calm     37 % 0.0 in
22:05 3.1 °F -6.3 °F 1019.9 in WNW 1.6 mph 3.2 mph 50 % 0.0 in
22:07 6.0 °F -7.3 °F 1019.9 in NNE 1.9 mph 1.9 mph 38 % 0.0 in
22:12 6.0 °F -7.3 °F 1019.9 in Calm     38 % 0.0 in
22:15 3.1 °F -6.6 °F 1019.9 in West 1.6 mph 3.2 mph 49 % 0.0 in
22:17 6.0 °F -7.3 °F 1019.9 in Calm     38 % 0.0 in
22:22 5.9 °F -7.0 °F 1019.9 in ENE 2.6 mph   39 % 0.0 in
22:25 3.3 °F -6.4 °F 1018.8 in NW 1.6 mph 3.2 mph 49 % 0.0 in
22:27 5.8 °F -7.1 °F 1019.9 in NE 2.3 mph 2.3 mph 39 % 0.0 in
22:35 3.3 °F -6.4 °F 1018.8 in NNE 1.6 mph 4.8 mph 49 % 0.0 in
22:37 5.5 °F -7.1 °F 1019.9 in NE 1.9 mph   40 % 0.0 in
22:42 5.4 °F -7.2 °F 1019.9 in Calm     40 % 0.0 in
22:45 3.1 °F -6.6 °F 1019.9 in Calm     49 % 0.0 in
22:47 5.3 °F -6.9 °F 1019.9 in Calm     41 % 0.0 in
22:52 5.1 °F -7.1 °F 1020.9 in Calm     41 % 0.0 in
22:55 3.0 °F -6.7 °F 1018.8 in NNW 1.6 mph 3.2 mph 49 % 0.0 in
22:57 5.0 °F -7.2 °F 1020.9 in Calm     41 % 0.0 in
23:02 4.8 °F -7.1 °F 1020.9 in Calm     42 % 0.0 in
23:05 3.0 °F -6.4 °F 1018.8 in Calm   3.2 mph 50 % 0.0 in
23:07 4.7 °F -7.2 °F 1019.9 in Calm     42 % 0.0 in
23:12 4.5 °F -7.3 °F 1019.9 in Calm     42 % 0.0 in
23:15 2.8 °F -6.6 °F 1019.9 in NNW 1.6 mph 3.2 mph 50 % 0.0 in
23:17 4.5 °F -7.3 °F 1019.9 in WSW 1.9 mph 2.3 mph 42 % 0.0 in
23:22 4.4 °F -7.4 °F 1019.9 in WSW 3.9 mph 3.9 mph 42 % 0.0 in
23:25 2.6 °F -6.8 °F 1019.9 in Calm   3.2 mph 50 % 0.0 in
23:27 4.4 °F -7.4 °F 1019.9 in SW 3.7 mph 3.7 mph 42 % 0.0 in
23:32 4.3 °F -7.5 °F 1019.9 in SW 3.9 mph 3.9 mph 42 % 0.0 in
23:37 4.3 °F -7.5 °F 1019.9 in WSW 3.7 mph 3.9 mph 42 % 0.0 in
23:42 4.2 °F -7.3 °F 1019.9 in WSW 1.9 mph   43 % 0.0 in
23:45 2.2 °F -7.2 °F 1018.8 in West 1.6 mph 1.6 mph 50 % 0.0 in
23:47 4.2 °F -7.3 °F 1019.9 in WSW 2.6 mph   43 % 0.0 in
23:52 4.3 °F -7.2 °F 1019.9 in SW 3.7 mph 3.7 mph 43 % 0.0 in
23:55 2.3 °F -7.1 °F 1019.9 in West 1.6 mph 3.2 mph 50 % 0.0 in
23:57 4.3 °F -6.9 °F 1019.9 in Calm     44 % 0.0 in
Meteo Sesrovires
Elogis d' Weather Underground - 1.5 mb

Guio original per  Jim McMurry - jmcmurry@mwt.net Adaptat per a la plantilla per  Wim van der Kuil - Leuven-Template.eu

Trobareu la nostra informacio del temps tambe a:

Weather Underground

AWEKAS